TAF and METAR

Could not understand the following METAR

YCOM 061100Z AUTO 24006KT 9999 // NCD M00/M02 Q1021
No TAF available for Cooma - Snowy Mountains Airport